Time;durP1;ratioP1;P1;durP2;ratioP2;P2;SDS_P1;SDS_P2;PMS_P1;PMS_P2;Temp;Humidity;BMP_temperature;BMP_pressure;BME280_temperature;BME280_humidity;BME280_pressure;Samples;Min_cycle;Max_cycle;Signal;HPM_P1;HPM_P2
2023/01/20 00:01:25;;;;;;;;;;;;;;;16.36;42.41;98564.34;5091149;28;20291;-44
2023/01/20 00:03:52;;;;;;;;;;;;;;;16.64;42.36;98547.91;5091054;28;19912;-42
2023/01/20 00:06:17;;;;;;;;;;;;;;;16.68;41.58;98587.41;5091070;28;19931;-42
2023/01/20 00:08:43;;;;;;;;;;;;;;;16.89;41.87;98592.78;5091200;28;19913;-42
2023/01/20 00:11:09;;;;;;;;;;;;;;;16.94;42.46;98585.47;5091283;28;19916;-42
2023/01/20 00:13:35;;;;;;;;;;;;;;;17.09;41.26;98581.16;5090890;28;19922;-42
2023/01/20 00:16:01;;;;;;;;;;;;;;;17.18;40.86;98563.38;5090889;28;19920;-43
2023/01/20 00:18:27;;;;;;;;;;;;;;;16.99;39.36;98566.66;5091150;28;19916;-42
2023/01/20 00:20:52;;;;;;;;;;;;;;;17.14;39.70;98579.25;5090795;28;20054;-43
2023/01/20 00:23:18;;;;;;;;;;;;;;;17.05;40.66;98585.47;5090818;28;19923;-43
2023/01/20 00:25:43;;;;;;;;;;;;;;;16.56;43.06;98584.19;5090933;28;20004;-43
2023/01/20 00:28:08;;;;;;;;;;;;;;;16.51;44.37;98600.31;5090717;28;20016;-43
2023/01/20 00:30:34;;;;;;;;;;;;;;;16.36;44.13;98607.31;5090964;28;19919;-43
2023/01/20 00:32:59;;;;;;;;;;;;;;;16.59;43.93;98610.50;5090632;28;19916;-42
2023/01/20 00:35:24;;;;;;;;;;;;;;;16.42;43.55;98600.06;5090657;28;20318;-43
2023/01/20 00:37:50;;;;;;;;;;;;;;;16.67;43.05;98607.28;5090075;28;19912;-43
2023/01/20 00:40:15;;;;;;;;;;;;;;;16.66;42.09;98605.69;5090700;28;19962;-43
2023/01/20 00:42:40;;;;;;;;;;;;;;;16.59;41.75;98603.25;5089278;28;19912;-42
2023/01/20 00:45:06;;;;;;;;;;;;;;;16.59;41.73;98610.50;5090645;28;19912;-42
2023/01/20 00:47:31;;;;;;;;;;;;;;;16.70;41.83;98608.63;5090572;28;19912;-42
2023/01/20 00:49:56;;;;;;;;;;;;;;;16.72;42.26;98604.59;5090657;28;19924;-43
2023/01/20 00:52:22;;;;;;;;;;;;;;;16.98;41.81;98634.94;5090229;28;19935;-43
2023/01/20 00:54:47;;;;;;;;;;;;;;;17.07;41.39;98620.94;5090091;28;19912;-43
2023/01/20 00:57:12;;;;;;;;;;;;;;;16.79;39.73;98610.50;5089947;28;20299;-43
2023/01/20 00:59:37;;;;;;;;;;;;;;;17.19;39.64;98635.69;5090367;28;19912;-44
2023/01/20 01:02:03;;;;;;;;;;;;;;;17.28;39.67;98651.25;5089538;28;20328;-43
2023/01/20 01:04:28;;;;;;;;;;;;;;;17.11;40.44;98644.28;5089674;28;19995;-42
2023/01/20 01:06:54;;;;;;;;;;;;;;;17.08;40.97;98658.28;5090191;28;20015;-43
2023/01/20 01:09:20;;;;;;;;;;;;;;;17.14;41.25;98633.00;5091385;28;19912;-43
2023/01/20 01:11:46;;;;;;;;;;;;;;;17.18;41.19;98639.44;5090782;28;20018;-42
2023/01/20 01:14:11;;;;;;;;;;;;;;;16.91;41.14;98668.53;5091022;28;19918;-43
2023/01/20 01:16:36;;;;;;;;;;;;;;;16.97;41.33;98686.25;5091029;28;20011;-41
2023/01/20 01:19:02;;;;;;;;;;;;;;;16.89;40.95;98689.50;5091281;28;20331;-41
2023/01/20 01:21:27;;;;;;;;;;;;;;;17.13;41.64;98695.09;5091205;28;20295;-41
2023/01/20 01:23:52;;;;;;;;;;;;;;;16.99;41.41;98681.41;5090912;28;19912;-41
2023/01/20 01:26:17;;;;;;;;;;;;;;;17.06;41.37;98673.88;5091156;28;19969;-43
2023/01/20 01:28:46;;;;;;;;;;;;;;;17.30;40.86;98678.66;5090869;28;19912;-43
2023/01/20 01:31:11;;;;;;;;;;;;;;;17.30;40.78;98675.97;5090541;28;19962;-42
2023/01/20 01:33:36;;;;;;;;;;;;;;;16.84;41.89;98684.13;5090826;28;19962;-42
2023/01/20 01:36:02;;;;;;;;;;;;;;;17.04;40.70;98696.72;5091017;28;20355;-43
2023/01/20 01:38:28;;;;;;;;;;;;;;;16.62;41.51;98704.00;5090824;28;19916;-43
2023/01/20 01:40:54;;;;;;;;;;;;;;;16.91;41.60;98724.97;5090680;28;19989;-43
2023/01/20 01:43:24;;;;;;;;;;;;;;;16.98;40.82;98722.78;5090828;28;20028;-44
2023/01/20 01:45:49;;;;;;;;;;;;;;;16.61;41.28;98687.03;5090803;28;20041;-41
2023/01/20 01:48:15;;;;;;;;;;;;;;;16.52;41.87;98634.16;5091482;28;20003;-41
2023/01/20 01:50:44;;;;;;;;;;;;;;;16.56;41.32;98652.16;5094194;28;19919;-41
2023/01/20 01:53:10;;;;;;;;;;;;;;;16.83;39.96;98658.31;5094433;28;19916;-41
2023/01/20 01:55:38;;;;;;;;;;;;;;;16.68;40.84;98685.97;5094587;28;20102;-41
2023/01/20 01:58:05;;;;;;;;;;;;;;;16.77;41.96;98668.25;5094328;28;19918;-41
2023/01/20 02:00:30;;;;;;;;;;;;;;;16.68;41.94;98649.19;5094177;28;19927;-42
2023/01/20 02:02:56;;;;;;;;;;;;;;;16.25;43.95;98645.16;5094055;28;19983;-41
2023/01/20 02:05:22;;;;;;;;;;;;;;;15.72;45.97;98651.44;5094080;28;19912;-43
2023/01/20 02:07:48;;;;;;;;;;;;;;;15.48;47.44;98644.91;5093993;28;19962;-41
2023/01/20 02:10:14;;;;;;;;;;;;;;;15.02;49.94;98656.22;5093650;28;19948;-41
2023/01/20 02:12:40;;;;;;;;;;;;;;;14.36;52.74;98654.66;5094200;28;19917;-41
2023/01/20 02:15:06;;;;;;;;;;;;;;;14.43;52.49;98671.31;5093666;28;19940;-42
2023/01/20 02:17:33;;;;;;;;;;;;;;;14.31;53.87;98673.34;5093911;28;20383;-41
2023/01/20 02:20:17;;;;;;;;;;;;;;;13.89;56.04;98672.13;5093951;28;19996;-42
2023/01/20 02:23:01;;;;;;;;;;;;;;;13.83;56.41;98665.09;5093810;28;19912;-43
2023/01/20 02:25:29;;;;;;;;;;;;;;;13.74;57.16;98668.47;5094167;28;19912;-43
2023/01/20 02:27:54;;;;;;;;;;;;;;;13.76;57.25;98658.34;5093910;28;19912;-41
2023/01/20 02:30:44;;;;;;;;;;;;;;;13.95;56.78;98651.56;5093757;28;20402;-44
2023/01/20 02:33:12;;;;;;;;;;;;;;;13.75;56.98;98659.41;5093750;28;19988;-44
2023/01/20 02:35:45;;;;;;;;;;;;;;;13.61;57.82;98688.38;5093360;28;19965;-44
2023/01/20 02:38:29;;;;;;;;;;;;;;;13.58;58.15;98676.31;5093528;28;20434;-43
2023/01/20 02:41:10;;;;;;;;;;;;;;;13.14;60.14;98672.78;5093580;28;20003;-43
2023/01/20 02:43:41;;;;;;;;;;;;;;;13.36;61.08;98692.31;5093767;28;19980;-45
2023/01/20 02:46:06;;;;;;;;;;;;;;;13.35;61.69;98688.06;5093505;28;19935;-43
2023/01/20 02:48:41;;;;;;;;;;;;;;;13.54;61.31;98669.84;5093407;28;19912;-42
2023/01/20 02:51:11;;;;;;;;;;;;;;;13.38;61.84;98702.78;5093452;28;20333;-42
2023/01/20 02:53:41;;;;;;;;;;;;;;;13.66;61.09;98705.28;5093684;28;19970;-44
2023/01/20 02:56:07;;;;;;;;;;;;;;;13.20;62.85;98693.16;5093188;28;20348;-43
2023/01/20 02:58:46;;;;;;;;;;;;;;;12.94;63.93;98676.75;5092949;28;19912;-42
2023/01/20 03:01:21;;;;;;;;;;;;;;;12.91;64.72;98704.75;5092740;28;19916;-42
2023/01/20 03:03:49;;;;;;;;;;;;;;;13.03;64.81;98714.56;5093276;28;19912;-43
2023/01/20 03:06:20;;;;;;;;;;;;;;;13.02;65.23;98695.06;5092920;28;19951;-42
2023/01/20 03:08:47;;;;;;;;;;;;;;;12.81;66.32;98707.28;5092474;28;19924;-43
2023/01/20 03:11:12;;;;;;;;;;;;;;;12.69;66.65;98706.53;5093203;28;19912;-43
2023/01/20 03:13:49;;;;;;;;;;;;;;;12.87;66.53;98694.78;5092614;28;20376;-43
2023/01/20 03:16:19;;;;;;;;;;;;;;;13.14;65.43;98686.94;5092942;28;19923;-43
2023/01/20 03:18:44;;;;;;;;;;;;;;;13.13;65.44;98708.53;5092726;28;19922;-43
2023/01/20 03:21:10;;;;;;;;;;;;;;;13.21;65.60;98721.47;5092718;28;20006;-44
2023/01/20 03:23:41;;;;;;;;;;;;;;;13.27;65.44;98681.25;5092967;28;20006;-43
2023/01/20 03:26:08;;;;;;;;;;;;;;;12.50;68.67;98668.59;5092500;28;20443;-44
2023/01/20 03:28:33;;;;;;;;;;;;;;;12.98;67.58;98696.56;5092436;28;20356;-43
2023/01/20 03:31:00;;;;;;;;;;;;;;;13.08;67.37;98696.75;5092448;28;19973;-44
2023/01/20 03:33:25;;;;;;;;;;;;;;;12.54;68.77;98690.28;5092541;28;19912;-43
2023/01/20 03:35:51;;;;;;;;;;;;;;;12.57;69.39;98681.81;5092461;28;19923;-43
2023/01/20 03:38:16;;;;;;;;;;;;;;;12.43;69.51;98682.13;5092424;28;20367;-43
2023/01/20 03:41:03;;;;;;;;;;;;;;;12.55;68.99;98694.59;5091058;28;19912;-44
2023/01/20 03:43:36;;;;;;;;;;;;;;;12.10;71.29;98685.53;5091752;28;19912;-42
2023/01/20 03:46:08;;;;;;;;;;;;;;;12.55;69.34;98670.56;5092351;28;19912;-43
2023/01/20 03:48:39;;;;;;;;;;;;;;;12.57;68.96;98671.13;5092019;28;19916;-44
2023/01/20 03:51:07;;;;;;;;;;;;;;;12.62;68.45;98669.34;5090970;28;19912;-43
2023/01/20 03:53:44;;;;;;;;;;;;;;;12.59;68.14;98661.03;5092633;28;19920;-43
2023/01/20 03:56:18;;;;;;;;;;;;;;;12.49;68.42;98659.81;5091993;28;19920;-43
2023/01/20 03:58:46;;;;;;;;;;;;;;;12.66;67.54;98664.31;5092139;28;19994;-43
2023/01/20 04:01:12;;;;;;;;;;;;;;;12.81;67.06;98651.22;5092105;28;20364;-43
2023/01/20 04:03:41;;;;;;;;;;;;;;;12.79;67.39;98644.50;5091950;28;19919;-43
2023/01/20 04:06:07;;;;;;;;;;;;;;;12.23;68.57;98639.09;5091909;28;19954;-45
2023/01/20 04:08:34;;;;;;;;;;;;;;;12.32;69.31;98657.13;5091702;28;19919;-45
2023/01/20 04:11:02;;;;;;;;;;;;;;;12.60;68.07;98670.63;5091646;28;19920;-45
2023/01/20 04:13:27;;;;;;;;;;;;;;;12.83;67.28;98686.50;5091305;28;20413;-44
2023/01/20 04:15:53;;;;;;;;;;;;;;;12.61;67.54;98667.72;5091419;28;19969;-44
2023/01/20 04:18:22;;;;;;;;;;;;;;;12.49;68.24;98653.66;5091881;28;19918;-44
2023/01/20 04:20:49;;;;;;;;;;;;;;;12.32;68.08;98658.97;5091136;28;20440;-44
2023/01/20 04:23:33;;;;;;;;;;;;;;;12.38;67.93;98635.88;5091398;28;19965;-44
2023/01/20 04:25:58;;;;;;;;;;;;;;;12.37;67.92;98626.22;5091119;28;20320;-44
2023/01/20 04:28:24;;;;;;;;;;;;;;;12.77;66.42;98646.59;5091127;28;19999;-44
2023/01/20 04:30:50;;;;;;;;;;;;;;;12.92;65.77;98622.78;5091258;28;20320;-43
2023/01/20 04:33:15;;;;;;;;;;;;;;;12.51;67.08;98595.53;5091559;28;19966;-44
2023/01/20 04:35:40;;;;;;;;;;;;;;;12.68;66.75;98603.50;5091236;28;20330;-44
2023/01/20 04:38:05;;;;;;;;;;;;;;;12.20;68.09;98591.53;5091553;28;19912;-43
2023/01/20 04:40:31;;;;;;;;;;;;;;;12.00;69.17;98587.50;5091494;28;20003;-43
2023/01/20 04:42:56;;;;;;;;;;;;;;;12.27;68.28;98605.53;5091492;28;20355;-43
2023/01/20 04:45:22;;;;;;;;;;;;;;;12.29;68.42;98606.09;5090911;28;19970;-43
2023/01/20 04:47:47;;;;;;;;;;;;;;;12.41;67.51;98598.81;5091102;28;19912;-43
2023/01/20 04:50:13;;;;;;;;;;;;;;;12.64;66.72;98603.19;5091301;28;19912;-44
2023/01/20 04:52:39;;;;;;;;;;;;;;;12.40;67.44;98626.56;5090858;28;20299;-42
2023/01/20 04:55:04;;;;;;;;;;;;;;;12.60;74.26;98626.06;5091058;28;19920;-42
2023/01/20 04:57:30;;;;;;;;;;;;;;;12.97;67.22;98598.84;5090857;28;19912;-42
2023/01/20 04:59:55;;;;;;;;;;;;;;;13.23;66.03;98583.13;5091472;28;19984;-44
2023/01/20 05:02:20;;;;;;;;;;;;;;;13.51;65.40;98584.81;5091211;28;19993;-45
2023/01/20 05:04:45;;;;;;;;;;;;;;;13.57;63.55;98557.06;5091016;28;19977;-44
2023/01/20 05:07:11;;;;;;;;;;;;;;;13.67;65.46;98538.47;5091218;28;19912;-44
2023/01/20 05:09:36;;;;;;;;;;;;;;;13.58;64.35;98552.56;5091071;28;19919;-44
2023/01/20 05:12:01;;;;;;;;;;;;;;;13.92;66.45;98544.28;5090811;28;20213;-43
2023/01/20 05:14:27;;;;;;;;;;;;;;;14.01;63.77;98556.97;5092378;28;19919;-46
2023/01/20 05:16:52;;;;;;;;;;;;;;;13.96;61.29;98537.41;5091673;28;19970;-45
2023/01/20 05:19:17;;;;;;;;;;;;;;;13.60;62.37;98555.78;5091402;28;20289;-43
2023/01/20 05:21:43;;;;;;;;;;;;;;;13.33;63.09;98553.06;5091378;28;19912;-44
2023/01/20 05:24:08;;;;;;;;;;;;;;;13.14;64.15;98564.06;5093738;28;19947;-43
2023/01/20 05:26:33;;;;;;;;;;;;;;;12.67;66.65;98551.97;5094794;28;19923;-43
2023/01/20 05:28:58;;;;;;;;;;;;;;;12.32;68.12;98544.28;5094784;28;19931;-43
2023/01/20 05:31:24;;;;;;;;;;;;;;;12.95;66.09;98552.09;5094553;28;20576;-44
2023/01/20 05:33:49;;;;;;;;;;;;;;;13.45;64.24;98533.19;5094331;28;19995;-44
2023/01/20 05:36:14;;;;;;;;;;;;;;;13.31;64.73;98529.31;5092803;28;20389;-43
2023/01/20 05:38:40;;;;;;;;;;;;;;;13.08;64.92;98530.34;5089306;28;19922;-43
2023/01/20 05:41:06;;;;;;;;;;;;;;;13.01;65.17;98503.81;5088890;28;19919;-43
2023/01/20 05:43:32;;;;;;;;;;;;;;;13.67;63.06;98497.59;5094017;28;20279;-43
2023/01/20 05:45:57;;;;;;;;;;;;;;;13.14;64.19;98494.63;5093828;28;19912;-44
2023/01/20 05:48:22;;;;;;;;;;;;;;;12.59;66.69;98492.88;5093688;28;19912;-44
2023/01/20 05:50:48;;;;;;;;;;;;;;;13.26;64.54;98492.59;5093284;28;19938;-43
2023/01/20 05:53:13;;;;;;;;;;;;;;;13.51;63.04;98504.63;5093169;28;20370;-44
2023/01/20 05:55:38;;;;;;;;;;;;;;;13.02;64.54;98508.13;5093084;28;19927;-44
2023/01/20 05:58:04;;;;;;;;;;;;;;;12.89;65.76;98509.28;5091695;28;19977;-43
2023/01/20 06:00:30;;;;;;;;;;;;;;;13.08;65.38;98503.66;5091148;28;19959;-44
2023/01/20 06:02:55;;;;;;;;;;;;;;;12.43;67.53;98508.69;5091486;28;19912;-43
2023/01/20 06:05:20;;;;;;;;;;;;;;;12.33;68.26;98500.53;5108189;28;20316;-44
2023/01/20 06:07:46;;;;;;;;;;;;;;;13.11;66.03;98497.78;5082773;28;19916;-42
2023/01/20 06:10:11;;;;;;;;;;;;;;;13.19;64.96;98494.66;5089623;28;19912;-43
2023/01/20 06:12:36;;;;;;;;;;;;;;;12.77;66.57;98486.44;5091025;28;20123;-43
2023/01/20 06:15:02;;;;;;;;;;;;;;;12.66;68.04;98477.47;5092350;28;20021;-44
2023/01/20 06:17:27;;;;;;;;;;;;;;;13.44;64.86;98463.94;5093131;28;20428;-43
2023/01/20 06:19:53;;;;;;;;;;;;;;;12.95;65.85;98464.75;5093186;28;20025;-44
2023/01/20 06:22:19;;;;;;;;;;;;;;;12.71;66.61;98454.34;5093197;28;19912;-46
2023/01/20 06:24:45;;;;;;;;;;;;;;;13.28;64.69;98446.94;5092598;28;20376;-44
2023/01/20 06:27:10;;;;;;;;;;;;;;;13.39;63.50;98450.56;5091163;28;19919;-45
2023/01/20 06:29:35;;;;;;;;;;;;;;;12.77;65.02;98454.41;5091207;28;20011;-44
2023/01/20 06:32:01;;;;;;;;;;;;;;;13.23;64.27;98458.41;5092111;28;19916;-43
2023/01/20 06:34:26;;;;;;;;;;;;;;;13.82;61.83;98462.13;5091547;28;19912;-43
2023/01/20 06:36:51;;;;;;;;;;;;;;;13.35;63.13;98470.84;5091256;28;19920;-44
2023/01/20 06:39:16;;;;;;;;;;;;;;;13.14;64.32;98475.13;5091590;28;19912;-43
2023/01/20 06:41:42;;;;;;;;;;;;;;;13.70;62.93;98473.00;5092606;28;20426;-43
2023/01/20 06:44:07;;;;;;;;;;;;;;;13.94;61.85;98491.38;5092704;28;19919;-44
2023/01/20 06:46:33;;;;;;;;;;;;;;;13.62;62.90;98489.50;5092879;28;19912;-43
2023/01/20 06:49:00;;;;;;;;;;;;;;;13.17;64.88;98495.97;5092680;28;20008;-44
2023/01/20 06:51:27;;;;;;;;;;;;;;;13.74;63.23;98490.13;5092618;28;19996;-44
2023/01/20 06:53:53;;;;;;;;;;;;;;;14.46;60.67;98487.97;5092379;28;19985;-44
2023/01/20 06:56:18;;;;;;;;;;;;;;;13.85;61.70;98478.47;5092723;28;19916;-43
2023/01/20 06:58:44;;;;;;;;;;;;;;;13.56;62.19;98477.97;5092326;28;20386;-43
2023/01/20 07:01:11;;;;;;;;;;;;;;;14.01;59.79;98465.22;5092639;28;19920;-43
2023/01/20 07:03:36;;;;;;;;;;;;;;;13.64;59.67;98466.00;5092445;28;20356;-43
2023/01/20 07:06:12;;;;;;;;;;;;;;;13.06;61.93;98450.47;5092750;28;19943;-45
2023/01/20 07:08:38;;;;;;;;;;;;;;;13.46;61.33;98449.28;5092382;28;19998;-43
2023/01/20 07:11:03;;;;;;;;;;;;;;;13.56;59.74;98459.25;5091036;28;19977;-43
2023/01/20 07:13:28;;;;;;;;;;;;;;;13.95;57.09;98439.50;5092351;28;19912;-44
2023/01/20 07:15:54;;;;;;;;;;;;;;;14.14;58.36;98451.38;5092115;28;19916;-44
2023/01/20 07:18:19;;;;;;;;;;;;;;;14.55;58.73;98474.91;5091759;28;19920;-45
2023/01/20 07:20:44;;;;;;;;;;;;;;;14.85;57.90;98479.66;5091991;28;20068;-43
2023/01/20 07:23:10;;;;;;;;;;;;;;;14.61;59.19;98455.97;5092029;28;20008;-44
2023/01/20 07:25:36;;;;;;;;;;;;;;;14.65;60.09;98434.84;5092466;28;20376;-43
2023/01/20 07:28:02;;;;;;;;;;;;;;;14.53;61.15;98461.00;5092126;28;19923;-43
2023/01/20 07:30:27;;;;;;;;;;;;;;;14.54;57.85;98452.69;5092247;28;19916;-43
2023/01/20 07:32:53;;;;;;;;;;;;;;;14.77;57.64;98464.84;5091819;28;19912;-44
2023/01/20 07:35:18;;;;;;;;;;;;;;;15.19;56.91;98492.59;5091913;28;19943;-44
2023/01/20 07:37:43;;;;;;;;;;;;;;;15.35;56.26;98472.81;5092087;28;20438;-43
2023/01/20 07:40:09;;;;;;;;;;;;;;;14.90;57.11;98506.44;5091679;28;19969;-43
2023/01/20 07:42:37;;;;;;;;;;;;;;;14.64;59.18;98509.00;5090534;28;19948;-42
2023/01/20 07:45:03;;;;;;;;;;;;;;;15.16;57.16;98507.31;5091941;28;19919;-43
2023/01/20 07:47:28;;;;;;;;;;;;;;;14.99;57.44;98509.41;5091391;28;19912;-45
2023/01/20 07:49:54;;;;;;;;;;;;;;;14.62;60.04;98518.34;5091468;28;19955;-45
2023/01/20 07:52:19;;;;;;;;;;;;;;;14.99;59.70;98528.97;5091534;28;19976;-43
2023/01/20 07:54:44;;;;;;;;;;;;;;;14.55;61.22;98534.63;5091729;28;19942;-42
2023/01/20 07:57:10;;;;;;;;;;;;;;;14.26;62.15;98547.53;5091598;28;20294;-43
2023/01/20 07:59:35;;;;;;;;;;;;;;;14.16;64.61;98579.56;5091517;28;19913;-45
2023/01/20 08:02:00;;;;;;;;;;;;;;;13.99;65.61;98617.13;5091276;28;19916;-44
2023/01/20 08:04:25;;;;;;;;;;;;;;;13.62;66.94;98680.09;5091266;28;19912;-44
2023/01/20 08:06:51;;;;;;;;;;;;;;;12.56;71.79;98701.53;5091584;28;19915;-45
2023/01/20 08:09:16;;;;;;;;;;;;;;;12.51;72.30;98696.91;5091206;28;19912;-45
2023/01/20 08:11:41;;;;;;;;;;;;;;;12.45;73.05;98698.69;5091275;28;19916;-47
2023/01/20 08:14:07;;;;;;;;;;;;;;;12.18;75.50;98713.66;5091074;28;19912;-48
2023/01/20 08:16:32;;;;;;;;;;;;;;;12.06;77.76;98706.53;5091274;28;20409;-47
2023/01/20 08:18:57;;;;;;;;;;;;;;;11.89;80.01;98721.63;5091408;28;19923;-48
2023/01/20 08:21:24;;;;;;;;;;;;;;;11.60;81.00;98712.78;5091353;28;19959;-49
2023/01/20 08:23:50;;;;;;;;;;;;;;;11.09;81.62;98696.50;5091030;28;19919;-45
2023/01/20 08:26:15;;;;;;;;;;;;;;;11.64;80.17;98712.06;5091082;28;19912;-45
2023/01/20 08:28:41;;;;;;;;;;;;;;;11.85;79.18;98704.50;5091106;28;19916;-46
2023/01/20 08:31:10;;;;;;;;;;;;;;;11.59;78.69;98700.50;5090810;28;19912;-46
2023/01/20 08:33:36;;;;;;;;;;;;;;;12.06;78.75;98689.72;5090835;28;20011;-46
2023/01/20 08:36:06;;;;;;;;;;;;;;;12.89;74.80;98677.50;5090573;28;20041;-47
2023/01/20 08:38:31;;;;;;;;;;;;;;;12.48;74.01;98679.53;5091125;28;19912;-45
2023/01/20 08:40:56;;;;;;;;;;;;;;;12.28;74.96;98673.81;5090934;28;19923;-45
2023/01/20 08:43:21;;;;;;;;;;;;;;;12.97;73.28;98681.63;5090659;28;19912;-45
2023/01/20 08:45:47;;;;;;;;;;;;;;;13.13;72.03;98697.88;5091023;28;20398;-45
2023/01/20 08:48:12;;;;;;;;;;;;;;;12.64;74.49;98698.44;5090906;28;19915;-44
2023/01/20 08:50:37;;;;;;;;;;;;;;;12.66;75.53;98701.69;5089545;28;20418;-44
2023/01/20 08:53:02;;;;;;;;;;;;;;;13.31;72.63;98702.97;5090627;28;19989;-43
2023/01/20 08:55:30;;;;;;;;;;;;;;;13.03;71.71;98693.19;5090721;28;20010;-43
2023/01/20 08:57:55;;;;;;;;;;;;;;;12.58;75.05;98662.84;5091258;28;19934;-45
2023/01/20 09:00:20;;;;;;;;;;;;;;;13.23;71.87;98647.25;5094942;28;20399;-44
2023/01/20 09:02:46;;;;;;;;;;;;;;;13.12;71.76;98638.31;5095005;28;19916;-45
2023/01/20 09:05:11;;;;;;;;;;;;;;;13.07;71.08;98623.00;5094548;28;20009;-44
2023/01/20 09:07:37;;;;;;;;;;;;;;;13.39;69.35;98621.56;5094842;28;19977;-43
2023/01/20 09:10:03;;;;;;;;;;;;;;;13.49;70.18;98609.13;5094844;28;19912;-45
2023/01/20 09:12:28;;;;;;;;;;;;;;;13.06;70.49;98592.03;5095000;28;20002;-45
2023/01/20 09:14:53;;;;;;;;;;;;;;;12.85;72.46;98592.78;5094677;28;20019;-45
2023/01/20 09:17:19;;;;;;;;;;;;;;;12.97;68.11;98557.97;5094718;28;20376;-45
2023/01/20 09:19:44;;;;;;;;;;;;;;;12.93;64.33;98555.00;5094531;28;19931;-44
2023/01/20 09:22:09;;;;;;;;;;;;;;;12.71;62.34;98536.28;5094530;28;19942;-44
2023/01/20 09:24:35;;;;;;;;;;;;;;;13.06;64.03;98530.59;5094471;28;19908;-43
2023/01/20 09:27:00;;;;;;;;;;;;;;;12.93;58.44;98506.94;5094457;28;19916;-44
2023/01/20 09:29:25;;;;;;;;;;;;;;;12.83;60.55;98461.41;5094700;28;19976;-44
2023/01/20 09:31:51;;;;;;;;;;;;;;;12.56;62.40;98470.16;5094559;28;19977;-44
2023/01/20 09:34:21;;;;;;;;;;;;;;;12.81;59.86;98444.84;5094193;28;20022;-44
2023/01/20 09:36:51;;;;;;;;;;;;;;;13.02;60.56;98403.97;5094245;28;19922;-45
2023/01/20 09:44:52;;;;;;;;;;;;;;;14.01;59.88;98375.09;5094526;28;19919;-45
2023/01/20 09:47:31;;;;;;;;;;;;;;;13.86;61.10;98385.72;5094068;28;20007;-44
2023/01/20 09:53:03;;;;;;;;;;;;;;;14.18;58.70;98387.47;5094128;28;19949;-43
2023/01/20 09:55:38;;;;;;;;;;;;;;;14.71;57.74;98385.59;5093542;28;19985;-45
2023/01/20 09:58:13;;;;;;;;;;;;;;;14.97;55.99;98399.06;5094074;28;19951;-44
2023/01/20 10:00:39;;;;;;;;;;;;;;;15.76;54.10;98405.84;5093458;28;19934;-44
2023/01/20 10:03:08;;;;;;;;;;;;;;;15.09;54.06;98385.41;5093610;28;19916;-44
2023/01/20 10:05:36;;;;;;;;;;;;;;;15.10;53.92;98377.09;5093415;28;19913;-43
2023/01/20 10:08:05;;;;;;;;;;;;;;;15.53;51.88;98369.59;5093110;28;20005;-44
2023/01/20 10:10:34;;;;;;;;;;;;;;;14.53;52.58;98337.88;5091828;28;19989;-43
2023/01/20 10:13:04;;;;;;;;;;;;;;;14.51;53.05;98338.13;5093571;28;19969;-44
2023/01/20 10:15:34;;;;;;;;;;;;;;;14.42;52.09;98337.81;5093373;28;19920;-43
2023/01/20 10:18:03;;;;;;;;;;;;;;;14.63;53.52;98354.78;5093612;28;19913;-44
2023/01/20 10:20:35;;;;;;;;;;;;;;;14.68;57.59;98374.59;5093012;28;19924;-45
2023/01/20 10:23:09;;;;;;;;;;;;;;;14.58;59.70;98367.34;5093303;28;20097;-43
2023/01/20 10:25:40;;;;;;;;;;;;;;;15.09;59.23;98346.00;5093424;28;19935;-44
2023/01/20 10:28:10;;;;;;;;;;;;;;;13.86;63.60;98357.09;5093189;28;19912;-42
2023/01/20 10:30:37;;;;;;;;;;;;;;;14.58;63.71;98361.97;5093205;28;19992;-43
2023/01/20 10:33:12;;;;;;;;;;;;;;;14.22;66.28;98368.00;5093358;28;20306;-44
2023/01/20 10:35:40;;;;;;;;;;;;;;;13.91;68.16;98358.97;5093093;28;19920;-43
2023/01/20 10:38:07;;;;;;;;;;;;;;;13.87;67.89;98376.59;5092782;28;19969;-42
2023/01/20 10:40:35;;;;;;;;;;;;;;;13.96;67.27;98363.56;5092726;28;20328;-43
2023/01/20 10:43:08;;;;;;;;;;;;;;;13.55;66.89;98352.59;5092936;28;19923;-43
2023/01/20 10:45:39;;;;;;;;;;;;;;;13.65;66.39;98348.16;5092745;28;19922;-41
2023/01/20 10:48:30;;;;;;;;;;;;;;;14.21;64.08;98350.31;5092673;28;19912;-44
2023/01/20 10:51:22;;;;;;;;;;;;;;;14.02;58.33;98341.94;5092565;28;20003;-43
2023/01/20 10:54:06;;;;;;;;;;;;;;;14.45;57.65;98349.88;5091316;28;19912;-40
2023/01/20 10:56:34;;;;;;;;;;;;;;;14.11;58.32;98378.88;5092621;28;19956;-43
2023/01/20 10:59:07;;;;;;;;;;;;;;;13.62;61.05;98354.00;5092676;28;20003;-42
2023/01/20 11:01:33;;;;;;;;;;;;;;;13.29;63.70;98366.53;5092614;28;20393;-42
2023/01/20 11:03:59;;;;;;;;;;;;;;;13.35;63.41;98350.59;5092653;28;19934;-43
2023/01/20 11:06:25;;;;;;;;;;;;;;;13.14;64.09;98328.22;5092140;28;20303;-42
2023/01/20 11:08:51;;;;;;;;;;;;;;;13.43;64.26;98340.22;5091868;28;19916;-42
2023/01/20 11:11:19;;;;;;;;;;;;;;;13.48;62.46;98350.97;5092068;28;19912;-42
2023/01/20 11:13:44;;;;;;;;;;;;;;;13.18;64.65;98330.13;5092041;28;19947;-43
2023/01/20 11:16:12;;;;;;;;;;;;;;;13.16;66.11;98324.22;5092200;28;19962;-44
2023/01/20 11:18:38;;;;;;;;;;;;;;;13.87;63.87;98315.09;5092138;28;19960;-44
2023/01/20 11:21:05;;;;;;;;;;;;;;;14.16;64.02;98314.69;5091212;28;19924;-44
2023/01/20 11:23:35;;;;;;;;;;;;;;;13.88;65.70;98314.06;5091763;28;19915;-44
2023/01/20 11:26:11;;;;;;;;;;;;;;;14.11;66.04;98334.22;5091753;28;20281;-42
2023/01/20 11:28:43;;;;;;;;;;;;;;;14.18;65.01;98324.06;5090772;28;19912;-44
2023/01/20 11:31:09;;;;;;;;;;;;;;;14.38;59.95;98327.91;5091666;28;19957;-44
2023/01/20 11:33:34;;;;;;;;;;;;;;;14.10;59.62;98318.44;5091866;28;19931;-44
2023/01/20 11:36:01;;;;;;;;;;;;;;;14.44;57.42;98300.09;5091737;28;19931;-44
2023/01/20 11:38:31;;;;;;;;;;;;;;;14.28;58.21;98296.56;5091795;28;20306;-44
2023/01/20 11:40:56;;;;;;;;;;;;;;;13.84;58.63;98302.25;5091755;28;19994;-44
2023/01/20 11:43:29;;;;;;;;;;;;;;;13.44;59.62;98292.94;5091880;28;20372;-42
2023/01/20 11:46:08;;;;;;;;;;;;;;;13.30;60.11;98298.72;5091696;28;20011;-42
2023/01/20 11:48:34;;;;;;;;;;;;;;;13.30;61.10;98288.03;5091755;28;19952;-44
2023/01/20 11:51:00;;;;;;;;;;;;;;;13.83;60.83;98284.59;5091422;28;20101;-43
2023/01/20 11:53:27;;;;;;;;;;;;;;;13.67;61.71;98262.34;5091475;28;19969;-43
2023/01/20 11:55:57;;;;;;;;;;;;;;;13.87;60.11;98272.31;5091643;28;19923;-43
2023/01/20 11:58:23;;;;;;;;;;;;;;;13.95;59.55;98253.09;5091272;28;20387;-43
2023/01/20 12:00:51;;;;;;;;;;;;;;;13.70;60.75;98248.44;5091649;28;19912;-43
2023/01/20 12:03:25;;;;;;;;;;;;;;;13.64;61.79;98271.69;5091336;28;20376;-43
2023/01/20 12:05:54;;;;;;;;;;;;;;;13.58;62.17;98271.91;5091850;28;19916;-44
2023/01/20 12:08:25;;;;;;;;;;;;;;;13.87;61.50;98277.69;5091185;28;19999;-47
2023/01/20 12:10:50;;;;;;;;;;;;;;;14.14;61.45;98266.81;5091358;28;20395;-42
2023/01/20 12:13:21;;;;;;;;;;;;;;;13.76;61.21;98276.81;5091294;28;19915;-45
2023/01/20 12:15:51;;;;;;;;;;;;;;;14.20;60.42;98291.72;5091166;28;19991;-43
2023/01/20 12:18:35;;;;;;;;;;;;;;;14.54;59.48;98296.63;5091594;28;20003;-44
2023/01/20 12:21:01;;;;;;;;;;;;;;;15.25;57.48;98296.72;5090533;28;20014;-44
2023/01/20 12:23:32;;;;;;;;;;;;;;;15.00;58.03;98288.69;5091052;28;20372;-44
2023/01/20 12:26:01;;;;;;;;;;;;;;;14.64;58.27;98299.34;5091387;28;20307;-42
2023/01/20 12:28:42;;;;;;;;;;;;;;;14.99;57.84;98295.13;5091343;28;19934;-43
2023/01/20 12:31:11;;;;;;;;;;;;;;;15.38;56.16;98276.63;5091236;28;19922;-45
2023/01/20 12:33:40;;;;;;;;;;;;;;;14.81;59.19;98273.16;5090357;28;20329;-42
2023/01/20 12:36:08;;;;;;;;;;;;;;;14.59;61.06;98275.25;5090694;28;20014;-43
2023/01/20 12:38:44;;;;;;;;;;;;;;;15.29;58.80;98277.41;5091139;28;19960;-45
2023/01/20 12:41:14;;;;;;;;;;;;;;;15.11;58.70;98265.38;5090701;28;20379;-44
2023/01/20 12:43:52;;;;;;;;;;;;;;;14.85;59.66;98263.50;5090539;28;19912;-43
2023/01/20 12:46:38;;;;;;;;;;;;;;;14.82;60.06;98273.94;5090925;28;20002;-44
2023/01/20 12:49:18;;;;;;;;;;;;;;;15.72;58.28;98278.66;5090165;28;20368;-46
2023/01/20 12:51:49;;;;;;;;;;;;;;;15.73;54.69;98282.19;5090844;28;19967;-45
2023/01/20 12:54:30;;;;;;;;;;;;;;;15.23;57.05;98293.50;5091084;28;20312;-47
2023/01/20 12:57:10;;;;;;;;;;;;;;;14.64;59.43;98310.06;5091008;28;19916;-43
2023/01/20 13:00:02;;;;;;;;;;;;;;;14.93;60.04;98325.66;5090957;28;20368;-46